sensor_id;sensor_type;location;lat;lon;timestamp;pressure;altitude;pressure_sealevel;temperature;humidity
62462;BME280;48511;38.664;-9.202;2023-02-01T00:00:12;49909.63;;;-146.63;59.81
62462;BME280;48511;38.664;-9.202;2023-02-01T00:02:13;49933.31;;;-146.63;59.95
62462;BME280;48511;38.664;-9.202;2023-02-01T00:04:14;49941.22;;;-146.63;59.69
62462;BME280;48511;38.664;-9.202;2023-02-01T00:06:15;49923.44;;;-146.63;60.07
62462;BME280;48511;38.664;-9.202;2023-02-01T00:08:16;49927.41;;;-146.63;59.86
62462;BME280;48511;38.664;-9.202;2023-02-01T00:10:17;49897.78;;;-146.63;59.89
62462;BME280;48511;38.664;-9.202;2023-02-01T00:12:17;49931.34;;;-146.63;59.86
62462;BME280;48511;38.664;-9.202;2023-02-01T00:14:18;49909.63;;;-146.63;59.83
62462;BME280;48511;38.664;-9.202;2023-02-01T00:16:21;49935.28;;;-146.63;59.51
62462;BME280;48511;38.664;-9.202;2023-02-01T00:18:22;49935.28;;;-146.63;59.75
62462;BME280;48511;38.664;-9.202;2023-02-01T00:20:23;49935.28;;;-146.63;59.55
62462;BME280;48511;38.664;-9.202;2023-02-01T00:22:24;49941.22;;;-146.63;59.43
62462;BME280;48511;38.664;-9.202;2023-02-01T00:24:25;49911.59;;;-146.63;59.82
62462;BME280;48511;38.664;-9.202;2023-02-01T00:26:35;49909.63;;;-146.63;59.90
62462;BME280;48511;38.664;-9.202;2023-02-01T00:28:36;49935.28;;;-146.63;59.89
62462;BME280;48511;38.664;-9.202;2023-02-01T00:30:36;49921.47;;;-146.63;59.89
62462;BME280;48511;38.664;-9.202;2023-02-01T00:32:37;49945.16;;;-146.63;60.00
62462;BME280;48511;38.664;-9.202;2023-02-01T00:34:38;49933.31;;;-146.63;60.42
62462;BME280;48511;38.664;-9.202;2023-02-01T00:36:40;49913.59;;;-146.63;60.43
62462;BME280;48511;38.664;-9.202;2023-02-01T00:38:41;49909.63;;;-146.63;60.69
62462;BME280;48511;38.664;-9.202;2023-02-01T00:40:42;49911.59;;;-146.63;61.12
62462;BME280;48511;38.664;-9.202;2023-02-01T00:42:42;49917.53;;;-146.63;61.26
62462;BME280;48511;38.664;-9.202;2023-02-01T00:44:43;49917.53;;;-146.63;61.35
62462;BME280;48511;38.664;-9.202;2023-02-01T00:46:44;49925.41;;;-146.63;61.41
62462;BME280;48511;38.664;-9.202;2023-02-01T00:48:45;49901.75;;;-146.63;62.15
62462;BME280;48511;38.664;-9.202;2023-02-01T00:50:46;49921.47;;;-146.63;63.08
62462;BME280;48511;38.664;-9.202;2023-02-01T00:52:46;49960.94;;;-146.63;64.26
62462;BME280;48511;38.664;-9.202;2023-02-01T00:54:47;49923.44;;;-146.63;64.02
62462;BME280;48511;38.664;-9.202;2023-02-01T00:56:48;49937.25;;;-146.63;64.37
62462;BME280;48511;38.664;-9.202;2023-02-01T00:58:48;49909.63;;;-146.63;64.12
62462;BME280;48511;38.664;-9.202;2023-02-01T01:00:49;49917.53;;;-146.63;64.31
62462;BME280;48511;38.664;-9.202;2023-02-01T01:02:50;49929.38;;;-146.63;64.63
62462;BME280;48511;38.664;-9.202;2023-02-01T01:04:51;49895.81;;;-146.63;64.64
62462;BME280;48511;38.664;-9.202;2023-02-01T01:06:52;49880.03;;;-146.63;64.15
62462;BME280;48511;38.664;-9.202;2023-02-01T01:08:53;49901.75;;;-146.63;64.05
62462;BME280;48511;38.664;-9.202;2023-02-01T01:10:55;49913.59;;;-146.63;64.25
62462;BME280;48511;38.664;-9.202;2023-02-01T01:12:55;49885.94;;;-146.63;64.37
62462;BME280;48511;38.664;-9.202;2023-02-01T01:14:56;49889.91;;;-146.63;64.73
62462;BME280;48511;38.664;-9.202;2023-02-01T01:16:57;49893.84;;;-146.63;64.82
62462;BME280;48511;38.664;-9.202;2023-02-01T01:18:58;49933.31;;;-146.63;65.14
62462;BME280;48511;38.664;-9.202;2023-02-01T01:20:59;49921.47;;;-146.63;65.39
62462;BME280;48511;38.664;-9.202;2023-02-01T01:23:01;49945.16;;;-146.63;65.86
62462;BME280;48511;38.664;-9.202;2023-02-01T01:25:01;49913.59;;;-146.63;65.70
62462;BME280;48511;38.664;-9.202;2023-02-01T01:27:02;49941.22;;;-146.63;65.73
62462;BME280;48511;38.664;-9.202;2023-02-01T01:29:03;49911.59;;;-146.63;65.61
62462;BME280;48511;38.664;-9.202;2023-02-01T01:31:09;49905.69;;;-146.63;65.64
62462;BME280;48511;38.664;-9.202;2023-02-01T01:33:10;49913.59;;;-146.63;65.42
62462;BME280;48511;38.664;-9.202;2023-02-01T01:35:11;49913.59;;;-146.63;65.71
62462;BME280;48511;38.664;-9.202;2023-02-01T01:37:12;49897.78;;;-146.63;65.70
62462;BME280;48511;38.664;-9.202;2023-02-01T01:39:13;49909.63;;;-146.63;65.84
62462;BME280;48511;38.664;-9.202;2023-02-01T01:41:17;49889.91;;;-146.63;66.05
62462;BME280;48511;38.664;-9.202;2023-02-01T01:43:19;49917.53;;;-146.63;66.43
62462;BME280;48511;38.664;-9.202;2023-02-01T01:45:27;49903.72;;;-146.63;66.63
62462;BME280;48511;38.664;-9.202;2023-02-01T01:47:35;49923.44;;;-146.63;66.98
62462;BME280;48511;38.664;-9.202;2023-02-01T01:49:38;49868.19;;;-146.63;66.83
62462;BME280;48511;38.664;-9.202;2023-02-01T01:51:49;49917.53;;;-146.63;67.00
62462;BME280;48511;38.664;-9.202;2023-02-01T01:54:17;49921.47;;;-146.63;66.98
62462;BME280;48511;38.664;-9.202;2023-02-01T01:56:19;49925.41;;;-146.63;67.19
62462;BME280;48511;38.664;-9.202;2023-02-01T01:58:24;49925.41;;;-146.63;67.27
62462;BME280;48511;38.664;-9.202;2023-02-01T02:00:26;49887.91;;;-146.63;67.17
62462;BME280;48511;38.664;-9.202;2023-02-01T02:02:28;49915.56;;;-146.63;67.69
62462;BME280;48511;38.664;-9.202;2023-02-01T02:04:29;49913.59;;;-146.63;68.12
62462;BME280;48511;38.664;-9.202;2023-02-01T02:06:45;49897.78;;;-146.63;68.29
62462;BME280;48511;38.664;-9.202;2023-02-01T02:08:48;49866.22;;;-146.63;68.14
62462;BME280;48511;38.664;-9.202;2023-02-01T02:10:50;49880.03;;;-146.63;68.38
62462;BME280;48511;38.664;-9.202;2023-02-01T02:13:00;49907.66;;;-146.63;68.42
62462;BME280;48511;38.664;-9.202;2023-02-01T02:15:01;49899.75;;;-146.63;68.43
62462;BME280;48511;38.664;-9.202;2023-02-01T02:26:27;49925.41;;;-146.63;69.78
62462;BME280;48511;38.664;-9.202;2023-02-01T02:38:15;49917.53;;;-146.63;70.65
62462;BME280;48511;38.664;-9.202;2023-02-01T02:40:31;49909.63;;;-146.63;70.87
62462;BME280;48511;38.664;-9.202;2023-02-01T02:45:12;49887.91;;;-146.63;70.90
62462;BME280;48511;38.664;-9.202;2023-02-01T02:47:54;49870.16;;;-146.63;70.91
62462;BME280;48511;38.664;-9.202;2023-02-01T02:50:17;49885.94;;;-146.63;70.97
62462;BME280;48511;38.664;-9.202;2023-02-01T02:52:43;49893.84;;;-146.63;71.36
62462;BME280;48511;38.664;-9.202;2023-02-01T02:55:07;49882.00;;;-146.63;71.87
62462;BME280;48511;38.664;-9.202;2023-02-01T02:57:12;49905.69;;;-146.63;71.67
62462;BME280;48511;38.664;-9.202;2023-02-01T02:59:34;49937.25;;;-146.63;72.06
62462;BME280;48511;38.664;-9.202;2023-02-01T03:01:54;49901.75;;;-146.63;71.83
62462;BME280;48511;38.664;-9.202;2023-02-01T03:04:14;49937.25;;;-146.63;72.34
62462;BME280;48511;38.664;-9.202;2023-02-01T03:06:23;49887.91;;;-146.63;72.52
62462;BME280;48511;38.664;-9.202;2023-02-01T03:08:26;49872.13;;;-146.63;72.49
62462;BME280;48511;38.664;-9.202;2023-02-01T03:12:54;49893.84;;;-146.63;72.53
62462;BME280;48511;38.664;-9.202;2023-02-01T03:15:06;49893.84;;;-146.63;72.76
62462;BME280;48511;38.664;-9.202;2023-02-01T03:17:13;49897.78;;;-146.63;72.96
62462;BME280;48511;38.664;-9.202;2023-02-01T03:19:25;49909.63;;;-146.63;73.17
62462;BME280;48511;38.664;-9.202;2023-02-01T03:21:36;49897.78;;;-146.63;73.33
62462;BME280;48511;38.664;-9.202;2023-02-01T03:23:38;49923.44;;;-146.63;73.53
62462;BME280;48511;38.664;-9.202;2023-02-01T03:25:39;49925.41;;;-146.63;73.70
62462;BME280;48511;38.664;-9.202;2023-02-01T03:28:00;49945.16;;;-146.63;73.82
62462;BME280;48511;38.664;-9.202;2023-02-01T03:32:08;49911.59;;;-146.63;74.04
62462;BME280;48511;38.664;-9.202;2023-02-01T03:34:11;49925.41;;;-146.63;74.31
62462;BME280;48511;38.664;-9.202;2023-02-01T03:36:26;49925.41;;;-146.63;74.48
62462;BME280;48511;38.664;-9.202;2023-02-01T03:39:15;49874.09;;;-146.63;74.40
62462;BME280;48511;38.664;-9.202;2023-02-01T03:46:11;49919.50;;;-146.63;74.77
62462;BME280;48511;38.664;-9.202;2023-02-01T03:48:14;49925.41;;;-146.63;74.95
62462;BME280;48511;38.664;-9.202;2023-02-01T03:50:23;49905.69;;;-146.63;75.11
62462;BME280;48511;38.664;-9.202;2023-02-01T03:52:32;49913.59;;;-146.63;75.13
62462;BME280;48511;38.664;-9.202;2023-02-01T03:54:38;49870.16;;;-146.63;75.17
62462;BME280;48511;38.664;-9.202;2023-02-01T03:56:42;49901.75;;;-146.63;74.93
62462;BME280;48511;38.664;-9.202;2023-02-01T03:58:47;49917.53;;;-146.63;75.41
62462;BME280;48511;38.664;-9.202;2023-02-01T04:01:00;49885.94;;;-146.63;75.21
62462;BME280;48511;38.664;-9.202;2023-02-01T04:03:04;49903.72;;;-146.63;75.61
62462;BME280;48511;38.664;-9.202;2023-02-01T04:05:06;49893.84;;;-146.63;75.83
62462;BME280;48511;38.664;-9.202;2023-02-01T04:07:07;49895.81;;;-146.63;76.11
62462;BME280;48511;38.664;-9.202;2023-02-01T04:09:08;49947.13;;;-146.63;76.11
62462;BME280;48511;38.664;-9.202;2023-02-01T04:11:09;49911.59;;;-146.63;76.18
62462;BME280;48511;38.664;-9.202;2023-02-01T04:13:09;49883.97;;;-146.63;76.03
62462;BME280;48511;38.664;-9.202;2023-02-01T04:15:10;49903.72;;;-146.63;76.98
62462;BME280;48511;38.664;-9.202;2023-02-01T04:17:11;49917.53;;;-146.63;76.71
62462;BME280;48511;38.664;-9.202;2023-02-01T04:19:12;49937.25;;;-146.63;76.75
62462;BME280;48511;38.664;-9.202;2023-02-01T04:21:12;49931.34;;;-146.63;76.81
62462;BME280;48511;38.664;-9.202;2023-02-01T04:23:13;49905.69;;;-146.63;77.04
62462;BME280;48511;38.664;-9.202;2023-02-01T04:25:16;49889.91;;;-146.63;77.04
62462;BME280;48511;38.664;-9.202;2023-02-01T04:27:20;49905.69;;;-146.63;77.01
62462;BME280;48511;38.664;-9.202;2023-02-01T04:29:21;49897.78;;;-146.63;77.34
62462;BME280;48511;38.664;-9.202;2023-02-01T04:31:22;49929.38;;;-146.63;77.27
62462;BME280;48511;38.664;-9.202;2023-02-01T04:33:25;49935.28;;;-146.63;77.55
62462;BME280;48511;38.664;-9.202;2023-02-01T04:35:26;49913.59;;;-146.63;77.69
62462;BME280;48511;38.664;-9.202;2023-02-01T04:37:27;49901.75;;;-146.63;77.84
62462;BME280;48511;38.664;-9.202;2023-02-01T04:39:28;49872.13;;;-146.63;77.76
62462;BME280;48511;38.664;-9.202;2023-02-01T04:41:28;49882.00;;;-146.63;77.64
62462;BME280;48511;38.664;-9.202;2023-02-01T04:43:30;49885.94;;;-146.63;77.85
62462;BME280;48511;38.664;-9.202;2023-02-01T04:45:31;49921.47;;;-146.63;77.90
62462;BME280;48511;38.664;-9.202;2023-02-01T04:47:31;49885.94;;;-146.63;78.01
62462;BME280;48511;38.664;-9.202;2023-02-01T04:49:32;49919.50;;;-146.63;78.02
62462;BME280;48511;38.664;-9.202;2023-02-01T04:51:34;49933.31;;;-146.63;78.04
62462;BME280;48511;38.664;-9.202;2023-02-01T04:53:34;49899.75;;;-146.63;78.07
62462;BME280;48511;38.664;-9.202;2023-02-01T04:55:35;49933.31;;;-146.63;78.04
62462;BME280;48511;38.664;-9.202;2023-02-01T04:57:36;49915.56;;;-146.63;78.14
62462;BME280;48511;38.664;-9.202;2023-02-01T04:59:39;49921.47;;;-146.63;78.52
62462;BME280;48511;38.664;-9.202;2023-02-01T05:01:39;49905.69;;;-146.63;78.44
62462;BME280;48511;38.664;-9.202;2023-02-01T05:03:40;49905.69;;;-146.63;78.68
62462;BME280;48511;38.664;-9.202;2023-02-01T05:05:41;49882.00;;;-146.63;78.39
62462;BME280;48511;38.664;-9.202;2023-02-01T05:07:42;49887.91;;;-146.63;78.60
62462;BME280;48511;38.664;-9.202;2023-02-01T05:09:42;49917.53;;;-146.63;78.55
62462;BME280;48511;38.664;-9.202;2023-02-01T05:11:43;49941.22;;;-146.63;78.71
62462;BME280;48511;38.664;-9.202;2023-02-01T05:14:02;49937.25;;;-146.63;78.66
62462;BME280;48511;38.664;-9.202;2023-02-01T05:16:03;49925.41;;;-146.63;78.75
62462;BME280;48511;38.664;-9.202;2023-02-01T05:18:04;49937.25;;;-146.63;78.80
62462;BME280;48511;38.664;-9.202;2023-02-01T05:20:06;49907.66;;;-146.63;78.75
62462;BME280;48511;38.664;-9.202;2023-02-01T05:22:07;49937.25;;;-146.63;78.87
62462;BME280;48511;38.664;-9.202;2023-02-01T05:24:08;49862.25;;;-146.63;78.94
62462;BME280;48511;38.664;-9.202;2023-02-01T05:26:20;49917.53;;;-146.63;78.69
62462;BME280;48511;38.664;-9.202;2023-02-01T05:28:20;49913.59;;;-146.63;78.96
62462;BME280;48511;38.664;-9.202;2023-02-01T05:30:21;49899.75;;;-146.63;79.17
62462;BME280;48511;38.664;-9.202;2023-02-01T05:32:22;49921.47;;;-146.63;79.54
62462;BME280;48511;38.664;-9.202;2023-02-01T05:34:22;49905.69;;;-146.63;79.46
62462;BME280;48511;38.664;-9.202;2023-02-01T05:36:24;49905.69;;;-146.63;79.33
62462;BME280;48511;38.664;-9.202;2023-02-01T05:38:25;49897.78;;;-146.63;79.35
62462;BME280;48511;38.664;-9.202;2023-02-01T05:40:25;49921.47;;;-146.63;79.46
62462;BME280;48511;38.664;-9.202;2023-02-01T05:42:26;49933.31;;;-146.63;79.93
62462;BME280;48511;38.664;-9.202;2023-02-01T05:44:27;49917.53;;;-146.63;80.07
62462;BME280;48511;38.664;-9.202;2023-02-01T05:46:27;49909.63;;;-146.63;80.14
62462;BME280;48511;38.664;-9.202;2023-02-01T05:48:28;49905.69;;;-146.63;80.14
62462;BME280;48511;38.664;-9.202;2023-02-01T05:50:29;49923.44;;;-146.63;80.39
62462;BME280;48511;38.664;-9.202;2023-02-01T05:52:31;49909.63;;;-146.63;80.10
62462;BME280;48511;38.664;-9.202;2023-02-01T05:54:32;49943.19;;;-146.63;80.19
62462;BME280;48511;38.664;-9.202;2023-02-01T05:56:33;49903.72;;;-146.63;80.28
62462;BME280;48511;38.664;-9.202;2023-02-01T05:58:34;49897.78;;;-146.63;80.47
62462;BME280;48511;38.664;-9.202;2023-02-01T06:00:35;49897.78;;;-146.63;80.64
62462;BME280;48511;38.664;-9.202;2023-02-01T06:02:36;49909.63;;;-146.63;80.91
62462;BME280;48511;38.664;-9.202;2023-02-01T06:04:37;49945.16;;;-146.63;82.47
62462;BME280;48511;38.664;-9.202;2023-02-01T06:06:38;49951.09;;;-146.63;83.41
62462;BME280;48511;38.664;-9.202;2023-02-01T06:08:40;49913.59;;;-146.63;84.18
62462;BME280;48511;38.664;-9.202;2023-02-01T06:10:40;49929.38;;;-146.63;85.40
62462;BME280;48511;38.664;-9.202;2023-02-01T06:12:41;49953.06;;;-146.63;85.34
62462;BME280;48511;38.664;-9.202;2023-02-01T06:14:42;49927.41;;;-146.63;85.82
62462;BME280;48511;38.664;-9.202;2023-02-01T06:16:43;49937.25;;;-146.63;86.31
62462;BME280;48511;38.664;-9.202;2023-02-01T06:18:45;49984.63;;;-146.63;86.31
62462;BME280;48511;38.664;-9.202;2023-02-01T06:20:55;49895.81;;;-146.63;86.29
62462;BME280;48511;38.664;-9.202;2023-02-01T06:22:56;49921.47;;;-146.63;86.55
62462;BME280;48511;38.664;-9.202;2023-02-01T06:24:56;49917.53;;;-146.63;86.70
62462;BME280;48511;38.664;-9.202;2023-02-01T06:26:59;49901.75;;;-146.63;86.79
62462;BME280;48511;38.664;-9.202;2023-02-01T06:29:00;49933.31;;;-146.63;86.83
62462;BME280;48511;38.664;-9.202;2023-02-01T06:31:07;49970.81;;;-146.63;86.67
62462;BME280;48511;38.664;-9.202;2023-02-01T06:33:07;49949.09;;;-146.63;86.66
62462;BME280;48511;38.664;-9.202;2023-02-01T06:35:09;49941.22;;;-146.63;86.38
62462;BME280;48511;38.664;-9.202;2023-02-01T06:37:16;49933.31;;;-146.63;86.51
62462;BME280;48511;38.664;-9.202;2023-02-01T06:39:17;49917.53;;;-146.63;86.82
62462;BME280;48511;38.664;-9.202;2023-02-01T06:41:18;49917.53;;;-146.63;86.92
62462;BME280;48511;38.664;-9.202;2023-02-01T06:43:24;49919.50;;;-146.63;86.79
62462;BME280;48511;38.664;-9.202;2023-02-01T06:45:26;49909.63;;;-146.63;86.57
62462;BME280;48511;38.664;-9.202;2023-02-01T06:47:26;49941.22;;;-146.63;86.52
62462;BME280;48511;38.664;-9.202;2023-02-01T06:49:27;49953.06;;;-146.63;86.63
62462;BME280;48511;38.664;-9.202;2023-02-01T06:51:28;49901.75;;;-146.63;86.45
62462;BME280;48511;38.664;-9.202;2023-02-01T06:53:30;49949.09;;;-146.63;86.40
62462;BME280;48511;38.664;-9.202;2023-02-01T06:55:30;49921.47;;;-146.63;86.32
62462;BME280;48511;38.664;-9.202;2023-02-01T06:57:31;49929.38;;;-146.63;86.41
62462;BME280;48511;38.664;-9.202;2023-02-01T06:59:33;49941.22;;;-146.63;86.44
62462;BME280;48511;38.664;-9.202;2023-02-01T07:01:34;49935.28;;;-146.63;86.38
62462;BME280;48511;38.664;-9.202;2023-02-01T07:03:35;49917.53;;;-146.63;86.29
62462;BME280;48511;38.664;-9.202;2023-02-01T07:05:36;49921.47;;;-146.63;86.12
62462;BME280;48511;38.664;-9.202;2023-02-01T07:07:37;49925.41;;;-146.63;86.08
62462;BME280;48511;38.664;-9.202;2023-02-01T07:09:37;49953.06;;;-146.63;85.87
62462;BME280;48511;38.664;-9.202;2023-02-01T07:11:38;49937.25;;;-146.63;85.75
62462;BME280;48511;38.664;-9.202;2023-02-01T07:13:44;49943.19;;;-146.63;85.43
62462;BME280;48511;38.664;-9.202;2023-02-01T07:15:45;49915.56;;;-146.63;85.38
62462;BME280;48511;38.664;-9.202;2023-02-01T07:17:47;49921.47;;;-146.63;85.91
62462;BME280;48511;38.664;-9.202;2023-02-01T07:19:49;49905.69;;;-146.63;85.98
62462;BME280;48511;38.664;-9.202;2023-02-01T07:21:50;49919.50;;;-146.63;85.98
62462;BME280;48511;38.664;-9.202;2023-02-01T07:23:50;49933.31;;;-146.63;86.07
62462;BME280;48511;38.664;-9.202;2023-02-01T07:25:55;49933.31;;;-146.63;86.23
62462;BME280;48511;38.664;-9.202;2023-02-01T07:27:57;49923.44;;;-146.63;86.29
62462;BME280;48511;38.664;-9.202;2023-02-01T07:29:58;49949.09;;;-146.63;86.19
62462;BME280;48511;38.664;-9.202;2023-02-01T07:32:02;49958.97;;;-146.63;86.31
62462;BME280;48511;38.664;-9.202;2023-02-01T07:34:03;49917.53;;;-146.63;86.27
62462;BME280;48511;38.664;-9.202;2023-02-01T07:36:05;49933.31;;;-146.63;86.17
62462;BME280;48511;38.664;-9.202;2023-02-01T07:38:06;49937.25;;;-146.63;86.20
62462;BME280;48511;38.664;-9.202;2023-02-01T07:40:07;49947.13;;;-146.63;86.01
62462;BME280;48511;38.664;-9.202;2023-02-01T07:42:08;49917.53;;;-146.63;86.12
62462;BME280;48511;38.664;-9.202;2023-02-01T07:44:09;49923.44;;;-146.63;86.18
62462;BME280;48511;38.664;-9.202;2023-02-01T07:46:10;49953.06;;;-146.63;86.30
62462;BME280;48511;38.664;-9.202;2023-02-01T07:48:11;49897.78;;;-146.63;86.29
62462;BME280;48511;38.664;-9.202;2023-02-01T07:50:12;49943.19;;;-146.63;86.23
62462;BME280;48511;38.664;-9.202;2023-02-01T07:52:12;49953.06;;;-146.63;86.51
62462;BME280;48511;38.664;-9.202;2023-02-01T07:54:16;49917.53;;;-146.63;86.26
62462;BME280;48511;38.664;-9.202;2023-02-01T07:56:18;49915.56;;;-146.63;86.13
62462;BME280;48511;38.664;-9.202;2023-02-01T07:58:20;49917.53;;;-146.63;86.61
62462;BME280;48511;38.664;-9.202;2023-02-01T08:00:21;49927.41;;;-146.63;87.10
62462;BME280;48511;38.664;-9.202;2023-02-01T08:02:40;49929.38;;;-146.63;87.45
62462;BME280;48511;38.664;-9.202;2023-02-01T08:04:41;49933.31;;;-146.63;87.66
62462;BME280;48511;38.664;-9.202;2023-02-01T08:06:42;49927.41;;;-146.63;87.54
62462;BME280;48511;38.664;-9.202;2023-02-01T08:08:43;49921.47;;;-146.63;87.59
62462;BME280;48511;38.664;-9.202;2023-02-01T08:10:45;49929.38;;;-146.63;87.35
62462;BME280;48511;38.664;-9.202;2023-02-01T08:12:46;49941.22;;;-146.63;87.56
62462;BME280;48511;38.664;-9.202;2023-02-01T08:14:51;49931.34;;;-146.63;87.53
62462;BME280;48511;38.664;-9.202;2023-02-01T08:16:53;49913.59;;;-146.63;87.95
62462;BME280;48511;38.664;-9.202;2023-02-01T08:18:53;49929.38;;;-146.63;87.84
62462;BME280;48511;38.664;-9.202;2023-02-01T08:20:54;49962.91;;;-146.63;87.85
62462;BME280;48511;38.664;-9.202;2023-02-01T08:22:55;49964.91;;;-146.63;87.94
62462;BME280;48511;38.664;-9.202;2023-02-01T08:24:56;49921.47;;;-146.63;88.31
62462;BME280;48511;38.664;-9.202;2023-02-01T08:27:07;49962.91;;;-146.63;88.16
62462;BME280;48511;38.664;-9.202;2023-02-01T08:29:08;49925.41;;;-146.63;88.08
62462;BME280;48511;38.664;-9.202;2023-02-01T08:31:12;49923.44;;;-146.63;88.18
62462;BME280;48511;38.664;-9.202;2023-02-01T08:33:14;49917.53;;;-146.63;88.17
62462;BME280;48511;38.664;-9.202;2023-02-01T08:35:15;49933.31;;;-146.63;88.29
62462;BME280;48511;38.664;-9.202;2023-02-01T08:37:16;49960.94;;;-146.63;87.75
62462;BME280;48511;38.664;-9.202;2023-02-01T08:39:17;49913.59;;;-146.63;87.92
62462;BME280;48511;38.664;-9.202;2023-02-01T08:41:22;49933.31;;;-146.63;87.84
62462;BME280;48511;38.664;-9.202;2023-02-01T08:43:23;49913.59;;;-146.63;87.83
62462;BME280;48511;38.664;-9.202;2023-02-01T08:45:27;49917.53;;;-146.63;87.79
62462;BME280;48511;38.664;-9.202;2023-02-01T08:47:30;49917.53;;;-146.63;87.84
62462;BME280;48511;38.664;-9.202;2023-02-01T08:49:30;49972.78;;;-146.63;87.73
62462;BME280;48511;38.664;-9.202;2023-02-01T08:51:31;49945.16;;;-146.63;87.55
62462;BME280;48511;38.664;-9.202;2023-02-01T08:53:32;49913.59;;;-146.63;87.42
62462;BME280;48511;38.664;-9.202;2023-02-01T08:55:35;49976.75;;;-146.63;87.20
62462;BME280;48511;38.664;-9.202;2023-02-01T08:57:36;49921.47;;;-146.63;87.03
62462;BME280;48511;38.664;-9.202;2023-02-01T08:59:40;49937.25;;;-146.63;87.01
62462;BME280;48511;38.664;-9.202;2023-02-01T09:01:40;49945.16;;;-146.63;86.77
62462;BME280;48511;38.664;-9.202;2023-02-01T09:03:41;49953.06;;;-146.63;86.86
62462;BME280;48511;38.664;-9.202;2023-02-01T09:05:42;49901.75;;;-146.63;86.54
62462;BME280;48511;38.664;-9.202;2023-02-01T09:07:43;49933.31;;;-146.63;86.42
62462;BME280;48511;38.664;-9.202;2023-02-01T09:09:44;49931.34;;;-146.63;86.27
62462;BME280;48511;38.664;-9.202;2023-02-01T09:11:45;49943.19;;;-146.63;86.19
62462;BME280;48511;38.664;-9.202;2023-02-01T09:13:47;49933.31;;;-146.63;86.12
62462;BME280;48511;38.664;-9.202;2023-02-01T09:15:50;49921.47;;;-146.63;85.98
62462;BME280;48511;38.664;-9.202;2023-02-01T09:17:51;49933.31;;;-146.63;85.59
62462;BME280;48511;38.664;-9.202;2023-02-01T09:19:52;49925.41;;;-146.63;85.32
62462;BME280;48511;38.664;-9.202;2023-02-01T09:21:53;49970.81;;;-146.63;85.38
62462;BME280;48511;38.664;-9.202;2023-02-01T09:23:55;49937.25;;;-146.63;85.15
62462;BME280;48511;38.664;-9.202;2023-02-01T09:26:02;49970.81;;;-146.63;84.89
62462;BME280;48511;38.664;-9.202;2023-02-01T09:28:04;49960.94;;;-146.63;84.73
62462;BME280;48511;38.664;-9.202;2023-02-01T09:30:07;49941.22;;;-146.63;84.42
62462;BME280;48511;38.664;-9.202;2023-02-01T09:32:08;49970.81;;;-146.63;84.09
62462;BME280;48511;38.664;-9.202;2023-02-01T09:34:08;49949.09;;;-146.63;84.19
62462;BME280;48511;38.664;-9.202;2023-02-01T09:36:09;49921.47;;;-146.63;83.66
62462;BME280;48511;38.664;-9.202;2023-02-01T09:38:13;49953.06;;;-146.63;83.40
62462;BME280;48511;38.664;-9.202;2023-02-01T09:40:39;49941.22;;;-146.63;83.56
62462;BME280;48511;38.664;-9.202;2023-02-01T09:43:04;49976.75;;;-146.63;83.47
62462;BME280;48511;38.664;-9.202;2023-02-01T09:45:37;49919.50;;;-146.63;83.09
62462;BME280;48511;38.664;-9.202;2023-02-01T09:47:49;49921.47;;;-146.63;82.90
62462;BME280;48511;38.664;-9.202;2023-02-01T09:50:04;49945.16;;;-146.63;82.82
62462;BME280;48511;38.664;-9.202;2023-02-01T09:52:07;49947.13;;;-146.63;82.38
62462;BME280;48511;38.664;-9.202;2023-02-01T09:54:27;49953.06;;;-146.63;81.98
62462;BME280;48511;38.664;-9.202;2023-02-01T09:56:46;49911.59;;;-146.63;81.59
62462;BME280;48511;38.664;-9.202;2023-02-01T10:01:20;49964.91;;;-146.63;80.93
62462;BME280;48511;38.664;-9.202;2023-02-01T10:03:35;49964.91;;;-146.63;80.67
62462;BME280;48511;38.664;-9.202;2023-02-01T10:08:30;49929.38;;;-146.63;80.23
62462;BME280;48511;38.664;-9.202;2023-02-01T10:10:39;49929.38;;;-146.63;80.20
62462;BME280;48511;38.664;-9.202;2023-02-01T10:14:59;49937.25;;;-146.63;77.93
62462;BME280;48511;38.664;-9.202;2023-02-01T10:17:19;49980.69;;;-146.63;78.51
62462;BME280;48511;38.664;-9.202;2023-02-01T10:26:16;49917.53;;;-146.63;75.45
62462;BME280;48511;38.664;-9.202;2023-02-01T10:28:18;49980.69;;;-146.63;74.82
62462;BME280;48511;38.664;-9.202;2023-02-01T10:30:24;49927.41;;;-146.63;74.17
62462;BME280;48511;38.664;-9.202;2023-02-01T10:32:33;49917.53;;;-146.63;73.95
62462;BME280;48511;38.664;-9.202;2023-02-01T10:34:36;49933.31;;;-146.63;73.58
62462;BME280;48511;38.664;-9.202;2023-02-01T10:36:42;49953.06;;;-146.63;73.39
62462;BME280;48511;38.664;-9.202;2023-02-01T10:38:45;49949.09;;;-146.63;73.47
62462;BME280;48511;38.664;-9.202;2023-02-01T10:40:47;49943.19;;;-146.63;71.60
62462;BME280;48511;38.664;-9.202;2023-02-01T10:42:53;49968.84;;;-146.63;71.74
62462;BME280;48511;38.664;-9.202;2023-02-01T10:44:57;49929.38;;;-146.63;71.25
62462;BME280;48511;38.664;-9.202;2023-02-01T10:47:00;49970.81;;;-146.63;71.05
62462;BME280;48511;38.664;-9.202;2023-02-01T10:49:05;49947.13;;;-146.63;70.38
62462;BME280;48511;38.664;-9.202;2023-02-01T10:51:21;49923.44;;;-146.63;70.06
62462;BME280;48511;38.664;-9.202;2023-02-01T10:53:53;49933.31;;;-146.63;69.58
62462;BME280;48511;38.664;-9.202;2023-02-01T10:55:56;49913.59;;;-146.63;69.54
62462;BME280;48511;38.664;-9.202;2023-02-01T10:57:59;49976.75;;;-146.63;69.34
62462;BME280;48511;38.664;-9.202;2023-02-01T11:00:19;49937.25;;;-146.63;69.06
62462;BME280;48511;38.664;-9.202;2023-02-01T11:02:29;49937.25;;;-146.63;68.61
62462;BME280;48511;38.664;-9.202;2023-02-01T11:04:34;49941.22;;;-146.63;67.57
62462;BME280;48511;38.664;-9.202;2023-02-01T11:06:40;49933.31;;;-146.63;66.97
62462;BME280;48511;38.664;-9.202;2023-02-01T11:08:48;49933.31;;;-146.63;65.99
62462;BME280;48511;38.664;-9.202;2023-02-01T11:10:57;49893.84;;;-146.63;65.64
62462;BME280;48511;38.664;-9.202;2023-02-01T11:13:03;49927.41;;;-146.63;64.72
62462;BME280;48511;38.664;-9.202;2023-02-01T11:15:19;49968.84;;;-146.63;64.73
62462;BME280;48511;38.664;-9.202;2023-02-01T11:17:34;49925.41;;;-146.63;64.37